Time;durP1;ratioP1;P1;durP2;ratioP2;P2;SDS_P1;SDS_P2;PMS_P1;PMS_P2;Temp;Humidity;BMP_temperature;BMP_pressure;BME280_temperature;BME280_humidity;BME280_pressure;Samples;Min_cycle;Max_cycle;Signal;HPM_P1;HPM_P2
2022/07/08 00:01:16;;;;;;;;;;;15.10;99.90;;;;;;5093682;28;19909;-66
2022/07/08 00:03:43;;;;;;;;;;;15.10;99.90;;;;;;5093379;28;20282;-66
2022/07/08 00:06:08;;;;;;;;;;;15.10;99.90;;;;;;5093603;28;19908;-65
2022/07/08 00:08:34;;;;;;;;;;;15.10;99.90;;;;;;5093333;28;19912;-66
2022/07/08 00:11:00;;;;;;;;;;;15.00;99.90;;;;;;5093579;28;19908;-66
2022/07/08 00:13:25;;;;;;;;;;;15.10;99.90;;;;;;5096232;28;19966;-66
2022/07/08 00:15:51;;;;;;;;;;;15.00;99.90;;;;;;5097127;28;19908;-66
2022/07/08 00:18:16;;;;;;;;;;;15.00;99.90;;;;;;5097048;28;19908;-65
2022/07/08 00:20:42;;;;;;;;;;;15.00;99.90;;;;;;5097305;28;19915;-66
2022/07/08 00:23:07;;;;;;;;;;;14.90;99.90;;;;;;5097248;28;19908;-65
2022/07/08 00:25:33;;;;;;;;;;;14.90;99.90;;;;;;5097227;28;19914;-66
2022/07/08 00:27:58;;;;;;;;;;;14.90;99.90;;;;;;5096907;28;19961;-66
2022/07/08 00:30:24;;;;;;;;;;;14.90;99.90;;;;;;5096824;28;19912;-66
2022/07/08 00:32:49;;;;;;;;;;;14.90;99.90;;;;;;5097081;28;19912;-66
2022/07/08 00:35:15;;;;;;;;;;;14.90;99.90;;;;;;5096696;28;20378;-66
2022/07/08 00:37:40;;;;;;;;;;;14.90;99.90;;;;;;5097004;28;19912;-66
2022/07/08 00:40:06;;;;;;;;;;;14.80;99.90;;;;;;5096690;28;19908;-66
2022/07/08 00:42:31;;;;;;;;;;;14.90;99.90;;;;;;5096626;28;19935;-66
2022/07/08 00:44:57;;;;;;;;;;;14.90;99.90;;;;;;5078539;28;20350;-66
2022/07/08 00:47:22;;;;;;;;;;;14.90;99.90;;;;;;5096516;28;19908;-65
2022/07/08 00:49:49;;;;;;;;;;;14.90;99.90;;;;;;5096722;28;19994;-66
2022/07/08 00:52:15;;;;;;;;;;;14.90;99.90;;;;;;5096427;28;19912;-65
2022/07/08 00:54:40;;;;;;;;;;;14.90;99.90;;;;;;5096573;28;19919;-66
2022/07/08 00:57:06;;;;;;;;;;;14.80;99.90;;;;;;5096607;28;20334;-66
2022/07/08 00:59:32;;;;;;;;;;;14.80;99.90;;;;;;5078183;28;20033;-66
2022/07/08 01:01:57;;;;;;;;;;;14.80;99.90;;;;;;5096536;28;19915;-66
2022/07/08 01:04:23;;;;;;;;;;;14.80;99.90;;;;;;5096203;28;19908;-66
2022/07/08 01:06:48;;;;;;;;;;;14.80;99.90;;;;;;5096146;28;19931;-66
2022/07/08 01:09:15;;;;;;;;;;;14.80;99.90;;;;;;5096146;28;19912;-66
2022/07/08 01:11:42;;;;;;;;;;;14.80;99.90;;;;;;5096176;28;20346;-66
2022/07/08 01:14:08;;;;;;;;;;;14.70;99.90;;;;;;5095757;28;19920;-66
2022/07/08 01:16:33;;;;;;;;;;;14.70;99.90;;;;;;5096206;28;19915;-66
2022/07/08 01:18:59;;;;;;;;;;;14.70;99.90;;;;;;5096206;28;20278;-66
2022/07/08 01:21:24;;;;;;;;;;;14.70;99.90;;;;;;5095888;28;19912;-66
2022/07/08 01:23:50;;;;;;;;;;;14.70;99.90;;;;;;5095318;28;20007;-66
2022/07/08 01:26:15;;;;;;;;;;;14.70;99.90;;;;;;5096037;28;19916;-65
2022/07/08 01:28:43;;;;;;;;;;;14.70;99.90;;;;;;5095792;28;19915;-66
2022/07/08 01:31:09;;;;;;;;;;;14.80;99.90;;;;;;5095663;28;20370;-66
2022/07/08 01:33:34;;;;;;;;;;;14.70;99.90;;;;;;5095563;28;20006;-66
2022/07/08 01:36:00;;;;;;;;;;;14.70;99.90;;;;;;5095867;28;20290;-66
2022/07/08 01:38:25;;;;;;;;;;;14.70;99.90;;;;;;5095524;28;19908;-65
2022/07/08 01:40:51;;;;;;;;;;;14.60;99.90;;;;;;5095749;28;19912;-66
2022/07/08 01:43:17;;;;;;;;;;;14.70;99.90;;;;;;5095480;28;19908;-66
2022/07/08 01:45:43;;;;;;;;;;;14.70;99.90;;;;;;5095652;28;19908;-65
2022/07/08 01:48:08;;;;;;;;;;;14.60;99.90;;;;;;5095633;28;20003;-66
2022/07/08 01:50:34;;;;;;;;;;;14.60;99.90;;;;;;5077223;28;20408;-66
2022/07/08 01:52:59;;;;;;;;;;;14.70;99.90;;;;;;5077213;28;19999;-66
2022/07/08 01:55:25;;;;;;;;;;;14.70;99.90;;;;;;5095101;28;19912;-65
2022/07/08 01:57:50;;;;;;;;;;;14.60;99.90;;;;;;5095418;28;19908;-66
2022/07/08 02:00:16;;;;;;;;;;;14.60;99.90;;;;;;5095368;28;19958;-66
2022/07/08 02:02:42;;;;;;;;;;;14.70;99.90;;;;;;5095351;28;19908;-66
2022/07/08 02:05:08;;;;;;;;;;;14.70;99.90;;;;;;5095287;28;19908;-66
2022/07/08 02:07:34;;;;;;;;;;;14.70;99.90;;;;;;5095002;28;19908;-66
2022/07/08 02:10:00;;;;;;;;;;;14.60;99.90;;;;;;5095153;28;19908;-66
2022/07/08 02:12:25;;;;;;;;;;;14.60;99.90;;;;;;5094924;28;20273;-66
2022/07/08 02:14:52;;;;;;;;;;;14.60;99.90;;;;;;5094766;28;19959;-66
2022/07/08 02:17:18;;;;;;;;;;;14.60;99.90;;;;;;5095048;28;20397;-66
2022/07/08 02:19:44;;;;;;;;;;;14.60;99.90;;;;;;5095017;28;20414;-66
2022/07/08 02:22:10;;;;;;;;;;;14.60;99.90;;;;;;5094995;28;19912;-66
2022/07/08 02:24:36;;;;;;;;;;;14.60;99.90;;;;;;5094656;28;19990;-66
2022/07/08 02:27:02;;;;;;;;;;;14.60;99.90;;;;;;5094893;28;20278;-66
2022/07/08 02:29:27;;;;;;;;;;;14.60;99.90;;;;;;5094802;28;19908;-66
2022/07/08 02:31:53;;;;;;;;;;;14.60;99.90;;;;;;5094549;28;19912;-66
2022/07/08 02:34:18;;;;;;;;;;;14.60;99.90;;;;;;5076003;28;19912;-66
2022/07/08 02:36:43;;;;;;;;;;;14.60;99.90;;;;;;5094518;28;20306;-67
2022/07/08 02:39:09;;;;;;;;;;;14.50;99.90;;;;;;5094640;28;19909;-66
2022/07/08 02:41:38;;;;;;;;;;;14.50;99.90;;;;;;5076168;28;20428;-67
2022/07/08 02:44:03;;;;;;;;;;;14.50;99.90;;;;;;5094553;28;20363;-66
2022/07/08 02:46:29;;;;;;;;;;;14.50;99.90;;;;;;5094558;28;19915;-67
2022/07/08 02:48:54;;;;;;;;;;;14.50;99.90;;;;;;5094481;28;19974;-66
2022/07/08 02:51:20;;;;;;;;;;;14.50;99.90;;;;;;5076009;28;20048;-67
2022/07/08 02:53:45;;;;;;;;;;;14.40;99.90;;;;;;5094330;28;19933;-66
2022/07/08 02:56:11;;;;;;;;;;;14.40;99.90;;;;;;5094157;28;20349;-66
2022/07/08 02:58:36;;;;;;;;;;;14.50;99.90;;;;;;5094038;28;19908;-66
2022/07/08 03:01:02;;;;;;;;;;;14.50;99.90;;;;;;5094339;28;19995;-66
2022/07/08 03:03:27;;;;;;;;;;;14.50;99.90;;;;;;5093947;28;20378;-66
2022/07/08 03:05:53;;;;;;;;;;;14.50;99.90;;;;;;5094012;28;19908;-66
2022/07/08 03:08:18;;;;;;;;;;;14.40;99.90;;;;;;5094032;28;19914;-66
2022/07/08 03:10:44;;;;;;;;;;;14.40;99.90;;;;;;5093911;28;19977;-67
2022/07/08 03:13:09;;;;;;;;;;;14.30;99.90;;;;;;5093740;28;19959;-66
2022/07/08 03:15:35;;;;;;;;;;;14.30;99.90;;;;;;5094119;28;19912;-66
2022/07/08 03:18:00;;;;;;;;;;;14.30;99.90;;;;;;5059021;28;19970;-66
2022/07/08 03:20:26;;;;;;;;;;;14.30;99.90;;;;;;5094042;28;19908;-66
2022/07/08 03:22:51;;;;;;;;;;;14.30;99.90;;;;;;5094053;28;19931;-66
2022/07/08 03:25:17;;;;;;;;;;;14.30;99.90;;;;;;5093722;28;20374;-66
2022/07/08 03:27:42;;;;;;;;;;;14.30;99.90;;;;;;5093993;28;19947;-65
2022/07/08 03:30:08;;;;;;;;;;;14.30;99.90;;;;;;5093944;28;19915;-65
2022/07/08 03:32:33;;;;;;;;;;;14.30;99.90;;;;;;5093670;28;20393;-65
2022/07/08 03:34:59;;;;;;;;;;;14.30;99.90;;;;;;5093564;28;20282;-65
2022/07/08 03:37:25;;;;;;;;;;;14.30;99.90;;;;;;5093626;28;19912;-66
2022/07/08 03:39:53;;;;;;;;;;;14.30;99.90;;;;;;5093864;28;20358;-66
2022/07/08 03:42:19;;;;;;;;;;;14.30;99.90;;;;;;5076023;28;19908;-66
2022/07/08 03:44:44;;;;;;;;;;;14.30;99.90;;;;;;5093444;28;19912;-66
2022/07/08 03:47:10;;;;;;;;;;;14.30;99.90;;;;;;5096702;28;19914;-65
2022/07/08 03:49:35;;;;;;;;;;;14.30;99.90;;;;;;5097630;28;19908;-65
2022/07/08 03:52:01;;;;;;;;;;;14.30;99.90;;;;;;5097905;28;19915;-66
2022/07/08 03:54:27;;;;;;;;;;;14.30;99.90;;;;;;5097742;28;19919;-65
2022/07/08 03:56:53;;;;;;;;;;;14.30;99.90;;;;;;5097516;28;19909;-65
2022/07/08 03:59:18;;;;;;;;;;;14.30;99.90;;;;;;5079334;28;19947;-65
2022/07/08 04:01:44;;;;;;;;;;;14.30;99.90;;;;;;5097500;28;20358;-65
2022/07/08 04:04:09;;;;;;;;;;;14.30;99.90;;;;;;5097397;28;19908;-65
2022/07/08 04:06:36;;;;;;;;;;;14.30;99.90;;;;;;5097334;28;19908;-66
2022/07/08 04:09:02;;;;;;;;;;;14.30;99.90;;;;;;5097271;28;19966;-65
2022/07/08 04:11:28;;;;;;;;;;;14.30;99.90;;;;;;5097488;28;20412;-65
2022/07/08 04:13:53;;;;;;;;;;;14.30;99.90;;;;;;5096922;28;19926;-65
2022/07/08 04:16:19;;;;;;;;;;;14.30;99.90;;;;;;5097203;28;19915;-65
2022/07/08 04:18:44;;;;;;;;;;;14.30;99.90;;;;;;5097072;28;19935;-65
2022/07/08 04:21:10;;;;;;;;;;;14.40;99.90;;;;;;5097026;28;19908;-65
2022/07/08 04:23:35;;;;;;;;;;;14.30;99.90;;;;;;5097246;28;19908;-65
2022/07/08 04:26:01;;;;;;;;;;;;;;;;;;5097222;28;19908;-65
2022/07/08 04:28:27;;;;;;;;;;;14.40;99.90;;;;;;5097164;28;19912;-65
2022/07/08 04:30:53;;;;;;;;;;;14.40;99.90;;;;;;5096859;28;19940;-65
2022/07/08 04:33:18;;;;;;;;;;;14.40;99.90;;;;;;5097003;28;19908;-65
2022/07/08 04:35:43;;;;;;;;;;;14.50;99.90;;;;;;5079115;28;19908;-65
2022/07/08 04:38:09;;;;;;;;;;;14.50;99.90;;;;;;5096708;28;19914;-65
2022/07/08 04:40:35;;;;;;;;;;;14.50;99.90;;;;;;5096918;28;19912;-65
2022/07/08 04:43:00;;;;;;;;;;;14.50;99.90;;;;;;5096682;28;19961;-65
2022/07/08 04:45:26;;;;;;;;;;;14.50;99.90;;;;;;5096817;28;20362;-65
2022/07/08 04:47:51;;;;;;;;;;;14.60;99.90;;;;;;5096774;28;20324;-65
2022/07/08 04:50:17;;;;;;;;;;;14.60;99.90;;;;;;5096747;28;19908;-65
2022/07/08 04:52:43;;;;;;;;;;;14.60;99.90;;;;;;5096607;28;19908;-65
2022/07/08 04:55:27;;;;;;;;;;;14.70;99.90;;;;;;5096287;28;19962;-66
2022/07/08 04:58:00;;;;;;;;;;;14.70;99.90;;;;;;5095745;28;19908;-65
2022/07/08 05:00:26;;;;;;;;;;;14.70;99.90;;;;;;5078467;28;19908;-66
2022/07/08 05:02:52;;;;;;;;;;;14.80;99.90;;;;;;5096516;28;19915;-65
2022/07/08 05:05:18;;;;;;;;;;;14.80;99.90;;;;;;5096465;28;19947;-65
2022/07/08 05:07:43;;;;;;;;;;;14.80;99.90;;;;;;5096435;28;19908;-65
2022/07/08 05:10:09;;;;;;;;;;;14.90;99.90;;;;;;5077971;28;19909;-65
2022/07/08 05:12:34;;;;;;;;;;;14.80;99.90;;;;;;5077630;28;19912;-65
2022/07/08 05:15:00;;;;;;;;;;;14.80;99.90;;;;;;5095961;28;19920;-66
2022/07/08 05:17:25;;;;;;;;;;;14.90;99.90;;;;;;5095886;28;19912;-66
2022/07/08 05:19:51;;;;;;;;;;;14.90;99.90;;;;;;5096177;28;19942;-66
2022/07/08 05:22:16;;;;;;;;;;;15.00;99.90;;;;;;5095858;28;20294;-67
2022/07/08 05:24:42;;;;;;;;;;;15.10;99.90;;;;;;5096102;28;19993;-66
2022/07/08 05:27:07;;;;;;;;;;;15.20;99.90;;;;;;5077641;28;19908;-66
2022/07/08 05:29:33;;;;;;;;;;;15.20;99.90;;;;;;5095708;28;19908;-66
2022/07/08 05:31:58;;;;;;;;;;;15.30;99.90;;;;;;5077633;28;19939;-66
2022/07/08 05:34:24;;;;;;;;;;;15.40;99.90;;;;;;5095845;28;20432;-66
2022/07/08 05:36:49;;;;;;;;;;;15.40;99.90;;;;;;5095601;28;19911;-66
2022/07/08 05:39:15;;;;;;;;;;;15.50;99.90;;;;;;5095900;28;19912;-65
2022/07/08 05:41:40;;;;;;;;;;;15.90;99.90;;;;;;5095471;28;19959;-66
2022/07/08 05:44:06;;;;;;;;;;;15.80;99.90;;;;;;5095703;28;20161;-66
2022/07/08 05:46:32;;;;;;;;;;;15.80;99.90;;;;;;5095429;28;20411;-66
2022/07/08 05:48:58;;;;;;;;;;;15.80;99.90;;;;;;5095614;28;20362;-65
2022/07/08 05:51:23;;;;;;;;;;;15.90;99.90;;;;;;5095621;28;20000;-66
2022/07/08 05:53:49;;;;;;;;;;;15.90;99.90;;;;;;5095150;28;19916;-65
2022/07/08 05:56:14;;;;;;;;;;;15.90;99.90;;;;;;5095493;28;19955;-66
2022/07/08 05:58:40;;;;;;;;;;;15.90;99.90;;;;;;5095160;28;19909;-65
2022/07/08 06:01:05;;;;;;;;;;;16.10;99.90;;;;;;5095083;28;19908;-66
2022/07/08 06:03:34;;;;;;;;;;;16.40;99.90;;;;;;5076911;28;19908;-65
2022/07/08 06:05:59;;;;;;;;;;;16.50;99.90;;;;;;5095324;28;20326;-66
2022/07/08 06:08:25;;;;;;;;;;;16.50;99.90;;;;;;5095254;28;19911;-67
2022/07/08 06:10:50;;;;;;;;;;;16.50;99.90;;;;;;5085262;28;20289;-66
2022/07/08 06:13:16;;;;;;;;;;;16.60;99.90;;;;;;5107453;28;19924;-65
2022/07/08 06:15:41;;;;;;;;;;;16.90;99.90;;;;;;5095552;28;20389;-65
2022/07/08 06:18:07;;;;;;;;;;;17.10;99.90;;;;;;5102656;28;19914;-65
2022/07/08 06:20:33;;;;;;;;;;;17.40;99.90;;;;;;5102828;28;19920;-65
2022/07/08 06:22:58;;;;;;;;;;;17.40;99.90;;;;;;5091354;28;20396;-66
2022/07/08 06:25:24;;;;;;;;;;;17.40;99.90;;;;;;5115024;28;20006;-65
2022/07/08 06:27:50;;;;;;;;;;;17.50;99.90;;;;;;5115203;28;19960;-66
2022/07/08 06:30:15;;;;;;;;;;;17.60;99.90;;;;;;5095341;28;19966;-66
2022/07/08 06:32:40;;;;;;;;;;;17.80;99.90;;;;;;5092441;28;19908;-65
2022/07/08 06:35:06;;;;;;;;;;;17.90;99.90;;;;;;5094581;28;19924;-65
2022/07/08 06:37:32;;;;;;;;;;;19.00;99.90;;;;;;5094591;28;19908;-66
2022/07/08 06:39:58;;;;;;;;;;;19.40;99.90;;;;;;5094592;28;20072;-66
2022/07/08 06:42:24;;;;;;;;;;;19.20;99.90;;;;;;5094578;28;19964;-65
2022/07/08 06:44:49;;;;;;;;;;;18.80;99.90;;;;;;5076158;28;20373;-64
2022/07/08 06:47:15;;;;;;;;;;;19.40;99.90;;;;;;5094140;28;20036;-65
2022/07/08 06:49:40;;;;;;;;;;;19.90;99.90;;;;;;5091355;28;19962;-65
2022/07/08 06:52:05;;;;;;;;;;;20.20;99.90;;;;;;5090864;28;20025;-65
2022/07/08 06:54:38;;;;;;;;;;;20.50;99.90;;;;;;5075969;28;19972;-65
2022/07/08 06:57:04;;;;;;;;;;;20.10;99.90;;;;;;5094326;28;19912;-65
2022/07/08 06:59:30;;;;;;;;;;;19.50;99.90;;;;;;5094296;28;19960;-65
2022/07/08 07:01:55;;;;;;;;;;;19.20;99.90;;;;;;5091160;28;20247;-65
2022/07/08 07:04:20;;;;;;;;;;;19.10;99.90;;;;;;5093469;28;19930;-65
2022/07/08 07:06:47;;;;;;;;;;;20.40;99.90;;;;;;5094150;28;19915;-65
2022/07/08 07:09:12;;;;;;;;;;;21.10;99.90;;;;;;5093907;28;20386;-65
2022/07/08 07:11:39;;;;;;;;;;;22.70;98.80;;;;;;5093804;28;19909;-65
2022/07/08 07:14:05;;;;;;;;;;;23.50;95.20;;;;;;5093606;28;19924;-66
2022/07/08 07:16:31;;;;;;;;;;;;;;;;;;5075686;28;19909;-65
2022/07/08 07:18:56;;;;;;;;;;;23.20;94.20;;;;;;5093711;28;20286;-65
2022/07/08 07:21:22;;;;;;;;;;;22.50;94.10;;;;;;5093552;28;19915;-65
2022/07/08 07:23:47;;;;;;;;;;;21.50;96.00;;;;;;5086891;28;20436;-65
2022/07/08 07:26:13;;;;;;;;;;;20.80;97.60;;;;;;5079710;28;19915;-65
2022/07/08 07:28:38;;;;;;;;;;;20.80;99.50;;;;;;5073380;28;20390;-65
2022/07/08 07:31:04;;;;;;;;;;;21.50;98.10;;;;;;5073668;28;19912;-65
2022/07/08 07:33:29;;;;;;;;;;;22.70;95.90;;;;;;5073537;28;19995;-66
2022/07/08 07:35:56;;;;;;;;;;;23.00;94.60;;;;;;5073665;28;19968;-65
2022/07/08 07:38:21;;;;;;;;;;;22.20;94.80;;;;;;5086163;28;19908;-65
2022/07/08 07:40:47;;;;;;;;;;;21.40;96.70;;;;;;5092145;28;19916;-65
2022/07/08 07:43:12;;;;;;;;;;;21.10;98.90;;;;;;5092573;28;19908;-65
2022/07/08 07:45:38;;;;;;;;;;;21.60;97.60;;;;;;5093211;28;19908;-65
2022/07/08 07:48:03;;;;;;;;;;;22.90;95.40;;;;;;5093701;28;20291;-66
2022/07/08 07:50:29;;;;;;;;;;;23.70;93.20;;;;;;5093456;28;19938;-67
2022/07/08 07:52:54;;;;;;;;;;;24.10;92.50;;;;;;5093622;28;19927;-66
2022/07/08 07:55:20;;;;;;;;;;;24.40;91.60;;;;;;5093231;28;19912;-65
2022/07/08 07:57:46;;;;;;;;;;;24.20;90.80;;;;;;5090265;28;19912;-66
2022/07/08 08:00:12;;;;;;;;;;;25.00;90.70;;;;;;5091763;28;19912;-65
2022/07/08 08:02:37;;;;;;;;;;;25.10;89.80;;;;;;5093483;28;19915;-66
2022/07/08 08:05:03;;;;;;;;;;;26.20;84.60;;;;;;5073136;28;19916;-65
2022/07/08 08:07:29;;;;;;;;;;;26.60;84.30;;;;;;5084040;28;19916;-65
2022/07/08 08:09:54;;;;;;;;;;;26.30;82.80;;;;;;5092100;28;20003;-66
2022/07/08 08:12:20;;;;;;;;;;;26.10;83.20;;;;;;5090702;28;20417;-66
2022/07/08 08:14:45;;;;;;;;;;;25.90;82.00;;;;;;5092820;28;19924;-65
2022/07/08 08:17:11;;;;;;;;;;;25.40;83.90;;;;;;5093161;28;19908;-65
2022/07/08 08:19:36;;;;;;;;;;;25.50;83.90;;;;;;5093101;28;19930;-65
2022/07/08 08:22:02;;;;;;;;;;;25.30;84.60;;;;;;5074956;28;20003;-66
2022/07/08 08:24:27;;;;;;;;;;;25.80;81.40;;;;;;5093338;28;19911;-66
2022/07/08 08:26:53;;;;;;;;;;;25.30;81.40;;;;;;5092664;28;19958;-65
2022/07/08 08:29:18;;;;;;;;;;;24.80;83.50;;;;;;5075367;28;19915;-65
2022/07/08 08:31:43;;;;;;;;;;;24.90;84.00;;;;;;5084654;28;19999;-66
2022/07/08 08:34:09;;;;;;;;;;;25.40;81.40;;;;;;5094314;28;19912;-65
2022/07/08 08:36:34;;;;;;;;;;;25.20;82.60;;;;;;5078805;28;19917;-65
2022/07/08 08:39:00;;;;;;;;;;;23.90;84.80;;;;;;5076248;28;19909;-65
2022/07/08 08:41:26;;;;;;;;;;;24.10;85.50;;;;;;5091903;28;19998;-65
2022/07/08 08:43:52;;;;;;;;;;;25.00;84.80;;;;;;5096538;28;20355;-66
2022/07/08 08:46:21;;;;;;;;;;;25.30;83.10;;;;;;5076637;28;19966;-65
2022/07/08 08:48:48;;;;;;;;;;;24.90;82.60;;;;;;5096224;28;19908;-66
2022/07/08 08:51:13;;;;;;;;;;;24.30;84.50;;;;;;5096178;28;19916;-66
2022/07/08 08:53:43;;;;;;;;;;;23.00;88.70;;;;;;5096083;28;19908;-66
2022/07/08 08:56:10;;;;;;;;;;;23.00;90.40;;;;;;5096372;28;19916;-66
2022/07/08 08:58:38;;;;;;;;;;;23.70;89.40;;;;;;5096469;28;20435;-66
2022/07/08 09:01:05;;;;;;;;;;;24.20;84.80;;;;;;5096451;28;19916;-66
2022/07/08 09:03:30;;;;;;;;;;;25.30;83.90;;;;;;5078110;28;20004;-66
2022/07/08 09:05:56;;;;;;;;;;;25.00;82.70;;;;;;5082193;28;19952;-67
2022/07/08 09:08:22;;;;;;;;;;;25.00;82.70;;;;;;5081957;28;19919;-67
2022/07/08 09:10:47;;;;;;;;;;;25.20;82.80;;;;;;5093859;28;19919;-67
2022/07/08 09:13:15;;;;;;;;;;;24.50;84.90;;;;;;5095626;28;19916;-67
2022/07/08 09:15:42;;;;;;;;;;;24.10;86.30;;;;;;5094504;28;19927;-67
2022/07/08 09:18:11;;;;;;;;;;;23.50;88.50;;;;;;5095488;28;19908;-66
2022/07/08 09:20:41;;;;;;;;;;;23.20;90.20;;;;;;5096080;28;19909;-67
2022/07/08 09:23:14;;;;;;;;;;;23.30;89.90;;;;;;5095794;28;19915;-66
2022/07/08 09:25:40;;;;;;;;;;;22.80;91.40;;;;;;5095578;28;19908;-66
2022/07/08 09:28:06;;;;;;;;;;;23.50;90.50;;;;;;5095673;28;19915;-67
2022/07/08 09:30:32;;;;;;;;;;;23.90;88.40;;;;;;5095883;28;19908;-66
2022/07/08 09:32:58;;;;;;;;;;;24.10;89.20;;;;;;5095582;28;19931;-66
2022/07/08 09:38:09;;;;;;;;;;;25.20;87.30;;;;;;5173512;27;19912;-67
2022/07/08 09:40:35;;;;;;;;;;;23.60;90.50;;;;;;5173426;27;19952;-67
2022/07/08 09:43:02;;;;;;;;;;;24.00;90.70;;;;;;5173283;27;19961;-66
2022/07/08 09:45:30;;;;;;;;;;;24.40;88.00;;;;;;5169516;27;19911;-67
2022/07/08 09:48:03;;;;;;;;;;;24.40;88.70;;;;;;5177264;27;19915;-66
2022/07/08 09:50:33;;;;;;;;;;;24.10;89.20;;;;;;5173176;27;19915;-67
2022/07/08 09:52:58;;;;;;;;;;;23.90;90.30;;;;;;5172826;27;20006;-67
2022/07/08 09:55:29;;;;;;;;;;;24.70;87.60;;;;;;5168974;27;19918;-67
2022/07/08 09:57:54;;;;;;;;;;;25.10;86.00;;;;;;5158421;27;19944;-67
2022/07/08 10:00:20;;;;;;;;;;;25.10;86.70;;;;;;5155315;27;19916;-68
2022/07/08 10:02:46;;;;;;;;;;;25.10;86.00;;;;;;5169562;27;19953;-67
2022/07/08 10:05:12;;;;;;;;;;;24.50;87.70;;;;;;5169632;27;19907;-67
2022/07/08 10:07:37;;;;;;;;;;;23.50;90.10;;;;;;5173466;27;20431;-67
2022/07/08 10:10:03;;;;;;;;;;;24.30;90.00;;;;;;5167939;27;20028;-68
2022/07/08 10:12:30;;;;;;;;;;;24.90;87.60;;;;;;5164195;27;20281;-67
2022/07/08 10:14:56;;;;;;;;;;;25.20;82.60;;;;;;5164156;27;19914;-66
2022/07/08 10:17:22;;;;;;;;;;;25.00;84.60;;;;;;5169635;27;20261;-67
2022/07/08 10:19:49;;;;;;;;;;;25.00;85.60;;;;;;5162716;27;20273;-67
2022/07/08 10:22:14;;;;;;;;;;;25.10;85.60;;;;;;5161091;27;20404;-66
2022/07/08 10:24:41;;;;;;;;;;;24.90;86.00;;;;;;5162135;27;19954;-66
2022/07/08 10:27:08;;;;;;;;;;;24.80;87.80;;;;;;5168601;27;20361;-67
2022/07/08 10:29:34;;;;;;;;;;;25.30;85.40;;;;;;5173351;27;19955;-66
2022/07/08 10:31:59;;;;;;;;;;;23.90;85.60;;;;;;5168189;27;19911;-66
2022/07/08 10:34:29;;;;;;;;;;;23.60;87.00;;;;;;5168807;27;19917;-66
2022/07/08 10:36:54;;;;;;;;;;;23.50;89.00;;;;;;5171898;27;20451;-66
2022/07/08 10:39:25;;;;;;;;;;;23.20;91.20;;;;;;5172009;27;19957;-66
2022/07/08 10:42:07;;;;;;;;;;;22.90;91.60;;;;;;5172208;27;20318;-66
2022/07/08 10:44:48;;;;;;;;;;;23.10;92.00;;;;;;5165708;27;19914;-66
2022/07/08 10:50:04;;;;;;;;;;;24.00;90.70;;;;;;5072758;28;19919;-66
2022/07/08 10:52:31;;;;;;;;;;;23.50;91.70;;;;;;5070861;28;19913;-66
2022/07/08 10:55:13;;;;;;;;;;;23.60;91.80;;;;;;5070615;28;19908;-66
2022/07/08 10:57:38;;;;;;;;;;;23.50;91.80;;;;;;5070474;28;20279;-67
2022/07/08 11:00:08;;;;;;;;;;;23.10;91.80;;;;;;5064442;28;20004;-67
2022/07/08 11:02:38;;;;;;;;;;;23.00;92.60;;;;;;5050582;28;19915;-67
2022/07/08 11:05:04;;;;;;;;;;;22.70;93.30;;;;;;5056223;28;19996;-67
2022/07/08 11:07:34;;;;;;;;;;;22.80;94.00;;;;;;5051576;28;20087;-67
2022/07/08 11:10:08;;;;;;;;;;;23.00;93.60;;;;;;5054482;28;19916;-67
2022/07/08 11:12:35;;;;;;;;;;;23.10;93.20;;;;;;5052558;28;19916;-67
2022/07/08 11:15:21;;;;;;;;;;;23.30;93.40;;;;;;5050996;28;20334;-67
2022/07/08 11:17:50;;;;;;;;;;;23.50;92.90;;;;;;5061722;28;20294;-67
2022/07/08 11:20:36;;;;;;;;;;;;;;;;;;;;;
2022/07/08 11:23:19;;;;;;;;;;;23.50;92.90;;;;;;5050231;28;19919;-67
2022/07/08 11:25:55;;;;;;;;;;;23.90;92.70;;;;;;5054002;28;19909;-67
2022/07/08 11:28:24;;;;;;;;;;;24.10;92.30;;;;;;5061749;28;20283;-67
2022/07/08 11:30:57;;;;;;;;;;;23.40;92.30;;;;;;5062734;28;19909;-67
2022/07/08 11:33:41;;;;;;;;;;;23.70;93.50;;;;;;5051088;28;20272;-67
2022/07/08 11:36:22;;;;;;;;;;;23.80;92.90;;;;;;5057194;28;19916;-67
2022/07/08 11:38:52;;;;;;;;;;;23.90;93.00;;;;;;5060947;28;19921;-68
2022/07/08 11:41:20;;;;;;;;;;;23.60;93.70;;;;;;5050611;28;19996;-67
2022/07/08 11:44:02;;;;;;;;;;;23.50;94.00;;;;;;5052509;28;20008;-68
2022/07/08 11:46:30;;;;;;;;;;;23.30;94.70;;;;;;5058740;28;19912;-67
2022/07/08 11:49:06;;;;;;;;;;;23.70;94.40;;;;;;5058660;28;20383;-67
2022/07/08 11:51:45;;;;;;;;;;;24.10;93.80;;;;;;5087527;28;19916;-67
2022/07/08 11:54:13;;;;;;;;;;;24.50;92.60;;;;;;5071008;28;19928;-68
2022/07/08 11:56:39;;;;;;;;;;;23.70;92.60;;;;;;5060429;28;20314;-67
2022/07/08 11:59:05;;;;;;;;;;;23.50;94.60;;;;;;5061023;28;19923;-67
2022/07/08 12:01:48;;;;;;;;;;;23.10;94.70;;;;;;5072503;28;19913;-67
2022/07/08 12:04:17;;;;;;;;;;;23.10;96.20;;;;;;5073366;28;19982;-67
2022/07/08 12:06:59;;;;;;;;;;;23.90;95.10;;;;;;5069781;28;19963;-67
2022/07/08 12:09:26;;;;;;;;;;;23.80;95.00;;;;;;5055980;28;19952;-67
2022/07/08 12:11:52;;;;;;;;;;;23.50;95.10;;;;;;5055974;28;19912;-67
2022/07/08 12:14:19;;;;;;;;;;;23.80;95.20;;;;;;5056044;28;19909;-67
2022/07/08 12:16:47;;;;;;;;;;;23.80;95.30;;;;;;5056236;28;19909;-67
2022/07/08 12:19:33;;;;;;;;;;;23.80;95.60;;;;;;5056130;28;19909;-67
2022/07/08 12:21:59;;;;;;;;;;;23.10;96.40;;;;;;5055775;28;19909;-67
2022/07/08 12:24:31;;;;;;;;;;;23.40;97.30;;;;;;5055743;28;19908;-67
2022/07/08 12:27:01;;;;;;;;;;;23.50;96.60;;;;;;5055976;28;20297;-67
2022/07/08 12:29:46;;;;;;;;;;;23.80;97.00;;;;;;5055848;28;19913;-67
2022/07/08 12:32:13;;;;;;;;;;;23.60;96.40;;;;;;5055514;28;19916;-67
2022/07/08 12:35:01;;;;;;;;;;;23.10;98.70;;;;;;5055590;28;19909;-67
2022/07/08 12:37:26;;;;;;;;;;;23.20;98.60;;;;;;5041265;28;20009;-67
2022/07/08 12:39:53;;;;;;;;;;;23.30;98.50;;;;;;5055469;28;20364;-67
2022/07/08 12:42:27;;;;;;;;;;;23.30;99.20;;;;;;5055710;28;20421;-67
2022/07/08 12:44:56;;;;;;;;;;;23.00;99.80;;;;;;5055390;28;20398;-67
2022/07/08 12:47:22;;;;;;;;;;;23.10;99.40;;;;;;5055564;28;20286;-67
2022/07/08 12:49:47;;;;;;;;;;;23.50;98.50;;;;;;5055070;28;19920;-67
2022/07/08 12:52:14;;;;;;;;;;;23.30;99.30;;;;;;5055569;28;19921;-67
2022/07/08 12:54:40;;;;;;;;;;;23.00;99.90;;;;;;5055536;28;20363;-67
2022/07/08 12:57:06;;;;;;;;;;;23.00;99.90;;;;;;5055098;28;19974;-67
2022/07/08 12:59:32;;;;;;;;;;;23.20;99.80;;;;;;5055421;28;20402;-67
2022/07/08 13:01:58;;;;;;;;;;;23.70;99.20;;;;;;5055140;28;19913;-67
2022/07/08 13:04:24;;;;;;;;;;;24.00;98.00;;;;;;5055000;28;20447;-67
2022/07/08 13:06:52;;;;;;;;;;;24.40;97.30;;;;;;5037163;28;19951;-67
2022/07/08 13:09:18;;;;;;;;;;;24.60;96.80;;;;;;5055143;28;20427;-67
2022/07/08 13:11:44;;;;;;;;;;;24.40;97.50;;;;;;5054223;28;20011;-67
2022/07/08 13:14:09;;;;;;;;;;;24.10;98.00;;;;;;5036995;28;19992;-67
2022/07/08 13:16:35;;;;;;;;;;;24.00;98.40;;;;;;5054805;28;19913;-67
2022/07/08 13:19:01;;;;;;;;;;;23.50;98.70;;;;;;5054750;28;20008;-67
2022/07/08 13:21:28;;;;;;;;;;;23.30;99.90;;;;;;5054969;28;19944;-68
2022/07/08 13:23:54;;;;;;;;;;;23.30;99.90;;;;;;5054894;28;19909;-67
2022/07/08 13:26:19;;;;;;;;;;;23.20;99.80;;;;;;5054871;28;20333;-67
2022/07/08 13:28:45;;;;;;;;;;;23.10;99.80;;;;;;5054714;28;19978;-67
2022/07/08 13:31:11;;;;;;;;;;;23.00;99.90;;;;;;5036759;28;19944;-67
2022/07/08 13:33:37;;;;;;;;;;;23.10;99.90;;;;;;5036633;28;20268;-67
2022/07/08 13:36:03;;;;;;;;;;;23.00;99.90;;;;;;5054454;28;19909;-67
2022/07/08 13:38:28;;;;;;;;;;;23.10;99.90;;;;;;5054391;28;19944;-67
2022/07/08 13:40:54;;;;;;;;;;;23.20;99.90;;;;;;5054238;28;19916;-67
2022/07/08 13:43:22;;;;;;;;;;;23.40;99.90;;;;;;5036712;28;19934;-67
2022/07/08 13:45:48;;;;;;;;;;;23.60;99.90;;;;;;5054446;28;19916;-67
2022/07/08 13:48:13;;;;;;;;;;;24.00;99.90;;;;;;5053826;28;20283;-67
2022/07/08 13:50:39;;;;;;;;;;;24.00;99.60;;;;;;5054367;28;20390;-67
2022/07/08 13:53:04;;;;;;;;;;;23.90;99.20;;;;;;5054318;28;19909;-67
2022/07/08 13:55:30;;;;;;;;;;;24.30;98.90;;;;;;5054297;28;19915;-67
2022/07/08 13:57:56;;;;;;;;;;;24.10;99.30;;;;;;5053988;28;19919;-67
2022/07/08 14:00:21;;;;;;;;;;;24.10;99.30;;;;;;5054224;28;20295;-65
2022/07/08 14:02:47;;;;;;;;;;;24.20;99.40;;;;;;5053934;28;19916;-65
2022/07/08 14:05:12;;;;;;;;;;;24.10;99.50;;;;;;5053868;28;19909;-67
2022/07/08 14:07:38;;;;;;;;;;;24.40;99.60;;;;;;5053704;28;19992;-67
2022/07/08 14:10:04;;;;;;;;;;;24.00;99.70;;;;;;5036180;28;19927;-67
2022/07/08 14:12:30;;;;;;;;;;;24.10;99.90;;;;;;5053758;28;19908;-67
2022/07/08 14:14:55;;;;;;;;;;;24.40;99.70;;;;;;5053974;28;19920;-67
2022/07/08 14:17:20;;;;;;;;;;;24.70;99.60;;;;;;5053969;28;20001;-67
2022/07/08 14:19:46;;;;;;;;;;;24.50;99.20;;;;;;5053896;28;20001;-67
2022/07/08 14:22:11;;;;;;;;;;;24.40;99.30;;;;;;5053659;28;20432;-67